Ясно с небольшим количеством низких облаков
Ясно с небольшим количеством низких облаков
Ясно и безоблачно
Ясно и безоблачно
Ясно с небольшим количеством низких облаков
Ясно с небольшим количеством низких облаков
Ясно с небольшим количеством низких облаков и отдельными перистыми облаками
Ясно с отдельными перистыми облаками
Ясно с небольшим количеством низких облаков и перистой облачностью
(°C)
27°
27°
28°
28°
28°
28°
28°
28°
28°
28°
27°
27°
26°
26°
25°
25°
24°
24°
(°C)
30°
30°
30°
29°
28°
28°
27°
26°
25°
З
ЗЮЗ
ЗЮЗ
ЮЗ
ЮЗ
ЮЗ
ЮЗ
ЮЗ
ЮЗ
(km/h)
9-19
10-19
10-20
12-21
13-22
14-23
15-25
15-26
15-26
(мм)
0
0
0
0
0
0
0
0
0
(%)
4
4
5
6
4
1
0
0
0

Высота солнцестояния

/ 66.4°
sun-icon
UV 7
05:24
20:11
Полнолуние (185°)
20:54
05:09

METAR для Barnstable (KHYA)

Время Условия Температура/
Точка росы
Ветер Видимость Погода Облачность Давление Изменить Необработанный
VFR 27.2°C / 17.8°C 250º 8kt >10km - Clear 1015 - KHYA 211456Z 25008KT 10SM CLR 27/18 A2998 RMK AO2 SLP154 T02720178 56006 $
VFR 25.6°C / 17.8°C 260º 8kt >10km - Broken Clouds 9500ft 1015 - KHYA 211356Z 26008KT 10SM BKN095 26/18 A2999 RMK AO2 SLP155 T02560178 $
VFR 23.9°C / 18.3°C 270º 6kt >10km - Few Clouds 9500ft
Scattered Clouds 12000ft
1015 - KHYA 211256Z 27006KT 10SM FEW095 SCT120 24/18 A2999 RMK AO2 SLP156 T02390183 $
VFR 22.2°C / 20°C 210º 5kt >10km 0.13mm precipitation Broken Clouds 8500ft
Overcast 11000ft
1016 - KHYA 211156Z 21005KT 10SM BKN085 OVC110 22/20 A3000 RMK AO2 RAB05E24 SLP160 P0000 60000 T02220200 10228 20222 51010 $
VFR 22.2°C / 20°C 240º 5kt >10km 0.13mm precipitation Overcast 7000ft 1016 - KHYA 211056Z 24005KT 10SM OVC070 22/20 A3000 RMK AO2 RAB03E38 SLP160 P0000 T02220200 $
VFR 22.2°C / 20°C 240º 5kt >10km - Broken Clouds 7500ft
Overcast 10000ft
1015 - KHYA 210956Z 24005KT 10SM BKN075 OVC100 22/20 A2998 RMK AO2 SLP152 T02220200 $
VFR 22.2°C / 19.4°C 230º 6kt >10km - Overcast 8000ft 1015 - KHYA 210856Z AUTO 23006KT 10SM OVC080 22/19 A2997 RMK AO2 SLP150 T02220194 56005 $
VFR 22.8°C / 19.4°C 240º 7kt >10km - Scattered Clouds 8000ft
Broken Clouds 11000ft
1015 - KHYA 210756Z AUTO 24007KT 10SM SCT080 BKN110 23/19 A2997 RMK AO2 SLP150 T02280194 $
VFR 22.8°C / 18.9°C 230º 8kt >10km - Broken Clouds 8500ft 1015 - KHYA 210656Z AUTO 23008KT 10SM BKN085 23/19 A2999 RMK AO2 SLP155 T02280189 $
VFR 22.8°C / 19.4°C 230º 9kt >10km - Clear 1015 - KHYA 210556Z AUTO 23009KT 10SM CLR 23/19 A2999 RMK AO2 SLP155 T02280194 10233 20228 56010 $
VFR 22.8°C / 18.3°C 240º 11kt >10km - Clear 1015 - KHYA 210456Z AUTO 24011KT 10SM CLR 23/18 A3000 RMK AO2 SLP158 T02280183 402720183 $
VFR 23.3°C / 17.8°C 230º 12kt >10km - Clear 1016 - KHYA 210356Z AUTO 23012KT 10SM CLR 23/18 A3001 RMK AO2 SLP162 T02330178 $
VFR 22.8°C / 17.8°C 230º 9kt >10km - Few Clouds 10000ft 1016 - KHYA 210256Z AUTO 23009KT 10SM FEW100 23/18 A3002 RMK AO2 SLP165 T02280178 58004 $
VFR 22.8°C / 17.8°C 230º 12kt >10km - Clear 1016 - KHYA 210156Z 23012KT 10SM CLR 23/18 A3002 RMK AO2 SLP167 T02280178 $
VFR 23.3°C / 18.9°C 230º 13kt >10km - Clear 1017 - KHYA 210056Z 23013KT 10SM CLR 23/19 A3003 RMK AO2 SLP170 T02330189 $
VFR 23.3°C / 19.4°C 230º 18kt Gust 24kt >10km - Clear 1016 - KHYA 202356Z 23018G24KT 10SM CLR 23/19 A3003 RMK AO2 SLP169 T02330194 10261 20233 53001 $
VFR 23.9°C / 19.4°C 230º 18kt Gust 24kt >10km - Clear 1016 - KHYA 202256Z 23018G24KT 10SM CLR 24/19 A3002 RMK AO2 SLP167 T02390194 $
VFR 25.6°C / 18.9°C 230º 13kt Gust 22kt >10km - Clear 1016 - KHYA 202156Z 23013G22KT 10SM CLR 26/19 A3002 RMK AO2 SLP165 T02560189 $
VFR 25.6°C / 19.4°C 220º 10kt Gust 19kt >10km - Clear 1016 - KHYA 202056Z 22010G19KT 10SM CLR 26/19 A3003 RMK AO2 SLP169 T02560194 56014 $
VFR 25°C / 19.4°C 220º 14kt Gust 19kt >10km - Clear 1017 - KHYA 201956Z 22014G19KT 10SM CLR 25/19 A3004 RMK AO2 SLP173 T02500194 $
VFR 25.6°C / 17.8°C 230º 13kt >10km - Clear 1017 - KHYA 201856Z 23013KT 10SM CLR 26/18 A3005 RMK AO2 SLP177 T02560178 $
VFR 25.6°C / 18.3°C 220º 12kt >10km - Clear 1018 - KHYA 201756Z 22012KT 10SM CLR 26/18 A3007 RMK AO2 SLP182 T02560183 10272 20228 58008 $
VFR 26.1°C / 16.1°C 230º 15kt >10km - Clear 1018 - KHYA 201656Z 23015KT 10SM CLR 26/16 A3008 RMK AO2 SLP187 T02610161 $
VFR 26.1°C / 17.8°C 230º 10kt >10km - Few Clouds 3800ft
Few Clouds 4700ft
1018 - KHYA 201556Z 23010KT 10SM FEW038 FEW047 26/18 A3009 RMK AO2 SLP188 T02610178 $

VFR

27.2°C / 17.8°C

[Больше]
Ветер 250º 8kt
Видимость >10km
Погода -
Облачность Clear
Давление 1015
Изменить -
Необработанный KHYA 211456Z 25008KT 10SM CLR 27/18 A2998 RMK AO2 SLP154 T02720178 56006 $

VFR

25.6°C / 17.8°C

[Больше]
Ветер 260º 8kt
Видимость >10km
Погода -
Облачность Broken Clouds 9500ft
Давление 1015
Изменить -
Необработанный KHYA 211356Z 26008KT 10SM BKN095 26/18 A2999 RMK AO2 SLP155 T02560178 $

VFR

23.9°C / 18.3°C

[Больше]
Ветер 270º 6kt
Видимость >10km
Погода -
Облачность Few Clouds 9500ft
Scattered Clouds 12000ft
Давление 1015
Изменить -
Необработанный KHYA 211256Z 27006KT 10SM FEW095 SCT120 24/18 A2999 RMK AO2 SLP156 T02390183 $

VFR

22.2°C / 20°C

[Больше]
Ветер 210º 5kt
Видимость >10km
Погода 0.13mm precipitation
Облачность Broken Clouds 8500ft
Overcast 11000ft
Давление 1016
Изменить -
Необработанный KHYA 211156Z 21005KT 10SM BKN085 OVC110 22/20 A3000 RMK AO2 RAB05E24 SLP160 P0000 60000 T02220200 10228 20222 51010 $

VFR

22.2°C / 20°C

[Больше]
Ветер 240º 5kt
Видимость >10km
Погода 0.13mm precipitation
Облачность Overcast 7000ft
Давление 1016
Изменить -
Необработанный KHYA 211056Z 24005KT 10SM OVC070 22/20 A3000 RMK AO2 RAB03E38 SLP160 P0000 T02220200 $

VFR

22.2°C / 20°C

[Больше]
Ветер 240º 5kt
Видимость >10km
Погода -
Облачность Broken Clouds 7500ft
Overcast 10000ft
Давление 1015
Изменить -
Необработанный KHYA 210956Z 24005KT 10SM BKN075 OVC100 22/20 A2998 RMK AO2 SLP152 T02220200 $

VFR

22.2°C / 19.4°C

[Больше]
Ветер 230º 6kt
Видимость >10km
Погода -
Облачность Overcast 8000ft
Давление 1015
Изменить -
Необработанный KHYA 210856Z AUTO 23006KT 10SM OVC080 22/19 A2997 RMK AO2 SLP150 T02220194 56005 $

VFR

22.8°C / 19.4°C

[Больше]
Ветер 240º 7kt
Видимость >10km
Погода -
Облачность Scattered Clouds 8000ft
Broken Clouds 11000ft
Давление 1015
Изменить -
Необработанный KHYA 210756Z AUTO 24007KT 10SM SCT080 BKN110 23/19 A2997 RMK AO2 SLP150 T02280194 $

VFR

22.8°C / 18.9°C

[Больше]
Ветер 230º 8kt
Видимость >10km
Погода -
Облачность Broken Clouds 8500ft
Давление 1015
Изменить -
Необработанный KHYA 210656Z AUTO 23008KT 10SM BKN085 23/19 A2999 RMK AO2 SLP155 T02280189 $

VFR

22.8°C / 19.4°C

[Больше]
Ветер 230º 9kt
Видимость >10km
Погода -
Облачность Clear
Давление 1015
Изменить -
Необработанный KHYA 210556Z AUTO 23009KT 10SM CLR 23/19 A2999 RMK AO2 SLP155 T02280194 10233 20228 56010 $

VFR

22.8°C / 18.3°C

[Больше]
Ветер 240º 11kt
Видимость >10km
Погода -
Облачность Clear
Давление 1015
Изменить -
Необработанный KHYA 210456Z AUTO 24011KT 10SM CLR 23/18 A3000 RMK AO2 SLP158 T02280183 402720183 $

VFR

23.3°C / 17.8°C

[Больше]
Ветер 230º 12kt
Видимость >10km
Погода -
Облачность Clear
Давление 1016
Изменить -
Необработанный KHYA 210356Z AUTO 23012KT 10SM CLR 23/18 A3001 RMK AO2 SLP162 T02330178 $

VFR

22.8°C / 17.8°C

[Больше]
Ветер 230º 9kt
Видимость >10km
Погода -
Облачность Few Clouds 10000ft
Давление 1016
Изменить -
Необработанный KHYA 210256Z AUTO 23009KT 10SM FEW100 23/18 A3002 RMK AO2 SLP165 T02280178 58004 $

VFR

22.8°C / 17.8°C

[Больше]
Ветер 230º 12kt
Видимость >10km
Погода -
Облачность Clear
Давление 1016
Изменить -
Необработанный KHYA 210156Z 23012KT 10SM CLR 23/18 A3002 RMK AO2 SLP167 T02280178 $

VFR

23.3°C / 18.9°C

[Больше]
Ветер 230º 13kt
Видимость >10km
Погода -
Облачность Clear
Давление 1017
Изменить -
Необработанный KHYA 210056Z 23013KT 10SM CLR 23/19 A3003 RMK AO2 SLP170 T02330189 $

VFR

23.3°C / 19.4°C

[Больше]
Ветер 230º 18kt Gust 24kt
Видимость >10km
Погода -
Облачность Clear
Давление 1016
Изменить -
Необработанный KHYA 202356Z 23018G24KT 10SM CLR 23/19 A3003 RMK AO2 SLP169 T02330194 10261 20233 53001 $

VFR

23.9°C / 19.4°C

[Больше]
Ветер 230º 18kt Gust 24kt
Видимость >10km
Погода -
Облачность Clear
Давление 1016
Изменить -
Необработанный KHYA 202256Z 23018G24KT 10SM CLR 24/19 A3002 RMK AO2 SLP167 T02390194 $

VFR

25.6°C / 18.9°C

[Больше]
Ветер 230º 13kt Gust 22kt
Видимость >10km
Погода -
Облачность Clear
Давление 1016
Изменить -
Необработанный KHYA 202156Z 23013G22KT 10SM CLR 26/19 A3002 RMK AO2 SLP165 T02560189 $

VFR

25.6°C / 19.4°C

[Больше]
Ветер 220º 10kt Gust 19kt
Видимость >10km
Погода -
Облачность Clear
Давление 1016
Изменить -
Необработанный KHYA 202056Z 22010G19KT 10SM CLR 26/19 A3003 RMK AO2 SLP169 T02560194 56014 $

VFR

25°C / 19.4°C

[Больше]
Ветер 220º 14kt Gust 19kt
Видимость >10km
Погода -
Облачность Clear
Давление 1017
Изменить -
Необработанный KHYA 201956Z 22014G19KT 10SM CLR 25/19 A3004 RMK AO2 SLP173 T02500194 $

VFR

25.6°C / 17.8°C

[Больше]
Ветер 230º 13kt
Видимость >10km
Погода -
Облачность Clear
Давление 1017
Изменить -
Необработанный KHYA 201856Z 23013KT 10SM CLR 26/18 A3005 RMK AO2 SLP177 T02560178 $

VFR

25.6°C / 18.3°C

[Больше]
Ветер 220º 12kt
Видимость >10km
Погода -
Облачность Clear
Давление 1018
Изменить -
Необработанный KHYA 201756Z 22012KT 10SM CLR 26/18 A3007 RMK AO2 SLP182 T02560183 10272 20228 58008 $

VFR

26.1°C / 16.1°C

[Больше]
Ветер 230º 15kt
Видимость >10km
Погода -
Облачность Clear
Давление 1018
Изменить -
Необработанный KHYA 201656Z 23015KT 10SM CLR 26/16 A3008 RMK AO2 SLP187 T02610161 $

VFR

26.1°C / 17.8°C

[Больше]
Ветер 230º 10kt
Видимость >10km
Погода -
Облачность Few Clouds 3800ft
Few Clouds 4700ft
Давление 1018
Изменить -
Необработанный KHYA 201556Z 23010KT 10SM FEW038 FEW047 26/18 A3009 RMK AO2 SLP188 T02610178 $

TAF для Barnstable (KHYA)

From till


From till Wind 250º 8kt. Visibility 9700m. Scattered Clouds 9000ft.
From till Wind 220º 9kt. Visibility 9700m. Few Clouds 25000ft.
From till Wind 270º 5kt. Visibility 9700m. Few Clouds 25000ft.

Необработанный: KHYA 211120Z 2112/2212 25008KT P6SM SCT090 FM211700 22009KT P6SM FEW250 FM220500 27005KT P6SM FEW250

rainNOW: Прогноз дождя для Barnstable и окрестностей (радиус 25 км)

0.0 мм
0.0 мм
0.0 мм
0.0 мм
0.0 мм
0.0 мм
0.0 мм
0.0 мм
0.0 мм
0.0 мм
0.0 мм
0.0 мм

Радарный и сверхкраткосрочный прогноз осадков для Barnstable

Морось
Незначительные
Умеренные
Сильные
Очень Сильные
Град

Индикатор местности находится на Barnstable. Эта анимация показывает радар осадков для выбранного диапазона времени, а также 1h прогноз. Оранжевые кресты обозначают молнию. Данные предоставлены nowcast.de (доступны в США, Европе, Австралии). Морось или небольшой снег могут быть невидимы для радара. Интенсивность осадков имеет цветовую кодировку - от бирюзового до красного.

Текущие спутниковые изображения для Barnstable, США

Указатель местности находится на Barnstable. [Больше]

Спутниковое изображение в реальном времени сочетает в себе видимый свет в дневное время с инфракрасным излучением в ночное время. Ночью изображение получается не темным, так как инфракрасное излучение может обнаружить разницу температур. К сожалению, низкие облака и туман трудно отличить от температуры у поверхности земли и поэтому могут быть почти незаметны ночью. Спутниковые снимки Meteosat для Европы обновляются каждые 5 минут в режиме реального времени.Снимки GOES-16/GOES-17 (Северная и Южная Америка) и Химавари (Азия) обновляются каждые 10 минут.

Осадки оцениваются по данным радаров и спутников. Оценка осадков со спутников менее точна ночью, чем днем.

© 2024 meteoblue, NOAA Satellites GOES-16 and EUMETSAT. Данные о молниях предоставляются со стороны nowcast.

Обратно к последним данным
×
Привет,
похоже, что вы используете блокировщик рекламы.

Реклама необходима для поддержания нашего бесплатного сайта с уникальной детализацией и точностью.

Пожалуйста, внесите www.meteoblue.com в белый список вашего блокировщика рекламы или рассмотрите возможность покупки одного из наших продуктов:

У вас уже есть подписка?
Тогда, пожалуйста, логин.